Impacts TAF Board
For situational awareness. Not to be used for flight planning purposes.
IDs:

KDRO - Durango/La Plata Cnt, CO, US

Issued at 1131 UTC 30 Oct 2020
Updated at 1642 UTC 30 Oct 2020
Potential Impact None Slight Moderate High
Time1553Z 30/17Z 30/18Z 30/19Z 30/20Z 30/21Z 30/22Z 30/23Z 31/00Z 31/01Z 31/02Z 31/03Z 31/04Z 31/05Z>>
Type OBS PRVL PRVL PRVL PRVL PRVL PRVL PRVL PRVL PRVL PRVL PRVL PRVL PRVL
VIS 10 >6 >6 >6 >6 >6 >6 >6 >6 >6 >6 >6 >6 >6
CIG -- -- -- -- -- -- -- -- -- -- -- -- -- --
Cover CLR SKC SKC SKC SKC SKC SKC SKC SKC SKC SKC SKC SKC SKC
FltCat VFR VFR VFR VFR VFR VFR VFR VFR VFR VFR VFR VFR VFR VFR
WX -- -- -- -- -- -- -- -- -- -- -- -- -- --
WDir VRB VRB VRB VRB VRB 230 230 230 280 280 280 VRB VRB VRB
WSpd 0 3 3 3 3 5 5 5 5 5 5 3 3 3
WGst -- -- -- -- -- -- -- -- -- -- -- -- -- --
Raw TAF
KDRO 301131Z 3012/3112 VRB03KT P6SM SKC
  FM302100 23005KT P6SM SKC
  FM310000 28005KT P6SM SKC
  FM310300 VRB03KT P6SM SKC


Raw METAR
KDRO 301553Z AUTO 00000KT 10SM CLR 05/M01 A3035 RMK AO2 SLP276 T00501006
KDRO 301453Z AUTO 00000KT 10SM CLR 01/M02 A3034 RMK AO2 SLP281 T00061017 52005
KDRO 301353Z AUTO 02003KT 10SM CLR M04/M05 A3033 RMK AO2 SLP282 T10391050

METAR Board
Radar Display
Forecast Discussion
For situational awareness. Not to be used for flight planning purposes.